Time;durP1;ratioP1;P1;durP2;ratioP2;P2;SDS_P1;SDS_P2;PMS_P1;PMS_P2;Temp;Humidity;BMP_temperature;BMP_pressure;BME280_temperature;BME280_humidity;BME280_pressure;Samples;Min_cycle;Max_cycle;Signal;HPM_P1;HPM_P2
2023/07/05 00:00:33;;;;;;;1.07;0.70;;;18.90;99.90;;;;;;5074071;28;20452;-79
2023/07/05 00:03:00;;;;;;;0.60;0.60;;;18.90;99.90;;;;;;5074327;28;20479;-79
2023/07/05 00:05:28;;;;;;;0.80;0.80;;;18.90;99.90;;;;;;5074275;28;20488;-79
2023/07/05 00:07:55;;;;;;;1.13;0.60;;;18.90;99.90;;;;;;5073894;28;20814;-79
2023/07/05 00:10:22;;;;;;;11.40;0.90;;;18.80;99.90;;;;;;5073873;28;20964;-79
2023/07/05 00:12:49;;;;;;;0.77;0.60;;;18.70;99.90;;;;;;5074335;28;20481;-78
2023/07/05 00:15:15;;;;;;;0.80;0.80;;;18.70;99.90;;;;;;5074112;28;20424;-79
2023/07/05 00:17:42;;;;;;;0.87;0.60;;;18.70;99.90;;;;;;5074056;28;20449;-79
2023/07/05 00:20:13;;;;;;;0.60;0.60;;;18.60;99.90;;;;;;5073959;28;20469;-79
2023/07/05 00:22:41;;;;;;;0.60;0.60;;;18.60;99.90;;;;;;5073996;28;20421;-79
2023/07/05 00:25:08;;;;;;;0.80;0.80;;;18.50;99.90;;;;;;5073903;28;20532;-79
2023/07/05 00:27:35;;;;;;;1.57;0.83;;;18.50;99.90;;;;;;5073641;28;20797;-79
2023/07/05 00:30:02;;;;;;;1.13;1.03;;;18.50;99.90;;;;;;5073615;28;20484;-78
2023/07/05 00:32:28;;;;;;;1.37;0.83;;;18.50;99.90;;;;;;5073747;28;20488;-79
2023/07/05 00:34:55;;;;;;;0.57;0.57;;;18.50;99.90;;;;;;5073798;28;20448;-78
2023/07/05 00:37:22;;;;;;;0.90;0.90;;;18.40;99.90;;;;;;5073747;28;20449;-79
2023/07/05 00:39:50;;;;;;;1.00;0.63;;;18.40;99.90;;;;;;5073651;28;20469;-78
2023/07/05 00:42:16;;;;;;;0.80;0.57;;;18.40;99.90;;;;;;5073342;28;20944;-78
2023/07/05 00:44:58;;;;;;;0.70;0.70;;;18.40;99.90;;;;;;5073652;28;20456;-79
2023/07/05 00:47:28;;;;;;;0.60;0.50;;;18.40;99.90;;;;;;5073635;28;20433;-79
2023/07/05 00:50:00;;;;;;;0.40;0.40;;;18.40;99.90;;;;;;5073494;28;20464;-79
2023/07/05 00:52:27;;;;;;;0.90;0.80;;;18.40;99.90;;;;;;5073539;28;20464;-79
2023/07/05 00:54:59;;;;;;;1.00;0.90;;;18.40;99.90;;;;;;5074272;28;20471;-79
2023/07/05 00:57:28;;;;;;;0.80;0.80;;;18.40;99.90;;;;;;5073510;28;20437;-79
2023/07/05 00:59:58;;;;;;;0.70;0.70;;;18.30;99.90;;;;;;5073323;28;20467;-79
2023/07/05 01:02:25;;;;;;;1.00;1.00;;;18.30;99.90;;;;;;5072515;28;20437;-79
2023/07/05 01:04:52;;;;;;;1.70;0.83;;;18.30;99.90;;;;;;5073688;28;20441;-79
2023/07/05 01:07:19;;;;;;;0.60;0.60;;;18.30;99.90;;;;;;5073065;28;20445;-79
2023/07/05 01:09:47;;;;;;;1.20;0.90;;;18.20;99.90;;;;;;5074029;28;20511;-79
2023/07/05 01:12:24;;;;;;;1.13;0.80;;;18.20;99.90;;;;;;5073227;28;20487;-79
2023/07/05 01:14:59;;;;;;;0.87;0.80;;;18.10;99.90;;;;;;5073363;28;20787;-79
2023/07/05 01:17:34;;;;;;;0.70;0.70;;;18.00;99.90;;;;;;5072972;28;20429;-79
2023/07/05 01:20:14;;;;;;;1.07;1.00;;;17.90;99.90;;;;;;5073215;28;20472;-79
2023/07/05 01:23:02;;;;;;;0.80;0.80;;;17.80;99.90;;;;;;5073292;28;20499;-79
2023/07/05 01:25:56;;;;;;;0.80;0.73;;;17.80;99.90;;;;;;5073253;28;20436;-79
2023/07/05 01:28:45;;;;;;;1.63;0.87;;;17.80;99.90;;;;;;5072736;28;20984;-79
2023/07/05 01:31:43;;;;;;;1.23;1.13;;;17.70;99.90;;;;;;5072877;28;20897;-79
2023/07/05 01:34:15;;;;;;;1.17;0.70;;;17.70;99.90;;;;;;5066902;28;20484;-79
2023/07/05 01:36:42;;;;;;;0.80;0.80;;;17.60;99.90;;;;;;5073180;28;20483;-79
2023/07/05 01:39:09;;;;;;;0.80;0.60;;;17.60;99.90;;;;;;5073016;28;20870;-79
2023/07/05 01:41:36;;;;;;;0.67;0.67;;;17.70;99.90;;;;;;5072784;28;20425;-79
2023/07/05 01:44:03;;;;;;;0.70;0.70;;;17.60;99.90;;;;;;5073020;28;20444;-79
2023/07/05 01:46:36;;;;;;;0.90;0.90;;;17.50;99.90;;;;;;5072970;28;20453;-79
2023/07/05 01:49:20;;;;;;;1.20;0.80;;;17.50;99.90;;;;;;5072909;28;20491;-79
2023/07/05 01:51:53;;;;;;;0.80;0.70;;;17.50;99.90;;;;;;5073016;28;20436;-79
2023/07/05 01:54:26;;;;;;;0.60;0.60;;;17.40;99.90;;;;;;5072793;28;20429;-79
2023/07/05 01:57:04;;;;;;;1.83;0.77;;;17.50;99.90;;;;;;5072922;28;20460;-79
2023/07/05 01:59:36;;;;;;;1.57;0.90;;;17.50;99.90;;;;;;5073049;28;20499;-79
2023/07/05 02:02:05;;;;;;;3.50;0.97;;;17.50;99.90;;;;;;5073561;28;20429;-79
2023/07/05 02:04:35;;;;;;;0.70;0.70;;;17.40;99.90;;;;;;5072822;28;20449;-79
2023/07/05 02:07:03;;;;;;;0.90;0.70;;;17.40;99.90;;;;;;5072538;28;20436;-79
2023/07/05 02:09:32;;;;;;;1.77;1.30;;;17.40;99.90;;;;;;5072418;28;20461;-79
2023/07/05 02:11:58;;;;;;;2.37;1.03;;;17.50;99.90;;;;;;5072712;28;20544;-79
2023/07/05 02:14:25;;;;;;;0.70;0.70;;;17.50;99.90;;;;;;5074886;28;20812;-79
2023/07/05 02:16:52;;;;;;;0.63;0.63;;;17.50;99.90;;;;;;5076201;28;20452;-79
2023/07/05 02:19:18;;;;;;;3.13;0.80;;;17.60;99.90;;;;;;5076385;28;20465;-79
2023/07/05 02:21:47;;;;;;;1.07;0.60;;;17.60;99.90;;;;;;5076486;28;20449;-79
2023/07/05 02:24:13;;;;;;;1.00;0.70;;;17.60;99.90;;;;;;5076175;28;20993;-79
2023/07/05 02:26:40;;;;;;;0.87;0.60;;;17.60;99.90;;;;;;5076217;28;20452;-79
2023/07/05 02:29:07;;;;;;;0.50;0.50;;;17.50;99.90;;;;;;5075741;28;20479;-79
2023/07/05 02:31:35;;;;;;;1.23;1.13;;;17.50;99.90;;;;;;5076300;28;20459;-78
2023/07/05 02:34:01;;;;;;;0.63;0.60;;;17.50;99.90;;;;;;5075722;28;20476;-79
2023/07/05 02:36:28;;;;;;;0.90;0.70;;;17.40;99.90;;;;;;5076067;28;20449;-79
2023/07/05 02:38:56;;;;;;;0.80;0.80;;;17.40;99.90;;;;;;5075958;28;20460;-79
2023/07/05 02:41:23;;;;;;;1.73;0.80;;;17.40;99.90;;;;;;5075959;28;20453;-79
2023/07/05 02:43:50;;;;;;;0.80;0.63;;;17.40;99.90;;;;;;5075627;28;20445;-79
2023/07/05 02:46:17;;;;;;;1.50;1.00;;;17.40;99.90;;;;;;5075929;28;20448;-79
2023/07/05 02:48:45;;;;;;;1.03;0.70;;;17.50;99.90;;;;;;5075484;28;20465;-79
2023/07/05 02:51:11;;;;;;;0.63;0.60;;;17.50;99.90;;;;;;5075790;28;20449;-79
2023/07/05 02:53:38;;;;;;;0.80;0.70;;;17.60;99.90;;;;;;5075649;28;20487;-79
2023/07/05 02:56:07;;;;;;;0.60;0.50;;;17.60;99.90;;;;;;5075669;28;20456;-79
2023/07/05 02:58:34;;;;;;;0.60;0.60;;;17.50;99.90;;;;;;5075569;28;20472;-79
2023/07/05 03:01:01;;;;;;;1.03;0.80;;;17.60;99.90;;;;;;5075244;28;20975;-78
2023/07/05 03:03:27;;;;;;;0.70;0.70;;;17.60;99.90;;;;;;5075508;28;20452;-79
2023/07/05 03:05:56;;;;;;;0.67;0.67;;;17.60;99.90;;;;;;5075201;28;20445;-79
2023/07/05 03:08:25;;;;;;;0.60;0.57;;;17.70;99.90;;;;;;5075431;28;20472;-79
2023/07/05 03:10:53;;;;;;;2.43;0.63;;;17.70;99.90;;;;;;5075031;28;20876;-79
2023/07/05 03:13:21;;;;;;;0.90;0.47;;;17.70;99.90;;;;;;5075075;28;20844;-79
2023/07/05 03:15:48;;;;;;;0.63;0.53;;;17.70;99.90;;;;;;5075294;28;20475;-79
2023/07/05 03:18:14;;;;;;;0.80;0.80;;;17.80;99.90;;;;;;5075400;28;20449;-79
2023/07/05 03:20:41;;;;;;;5.40;0.60;;;17.80;99.90;;;;;;5075278;28;20437;-79
2023/07/05 03:23:08;;;;;;;0.97;0.70;;;17.70;99.90;;;;;;5075185;28;20448;-79
2023/07/05 03:25:34;;;;;;;2.00;0.60;;;17.70;99.90;;;;;;5074178;28;20444;-79
2023/07/05 03:28:03;;;;;;;0.73;0.60;;;17.70;99.90;;;;;;5074800;28;20490;-79
2023/07/05 03:30:32;;;;;;;1.80;0.60;;;17.60;99.90;;;;;;5075069;28;20440;-79
2023/07/05 03:32:59;;;;;;;1.37;1.13;;;17.60;99.90;;;;;;5074590;28;21011;-79
2023/07/05 03:35:25;;;;;;;1.03;0.83;;;17.70;99.90;;;;;;5074852;28;20459;-79
2023/07/05 03:37:52;;;;;;;1.00;0.80;;;17.60;99.90;;;;;;5074970;28;20778;-79
2023/07/05 03:40:19;;;;;;;1.10;1.00;;;17.60;99.90;;;;;;5074713;28;20476;-79
2023/07/05 03:42:45;;;;;;;0.50;0.50;;;17.60;99.90;;;;;;5074781;28;20472;-79
2023/07/05 03:45:12;;;;;;;3.90;0.90;;;17.60;99.90;;;;;;5074681;28;20455;-79
2023/07/05 03:47:40;;;;;;;4.23;0.90;;;17.50;99.90;;;;;;5074647;28;20453;-79
2023/07/05 03:50:08;;;;;;;1.63;0.70;;;17.60;99.90;;;;;;5074228;28;20457;-79
2023/07/05 03:52:35;;;;;;;1.47;0.70;;;17.50;99.90;;;;;;5074498;28;20523;-79
2023/07/05 03:55:01;;;;;;;0.70;0.70;;;17.50;99.90;;;;;;5074516;28;20476;-79
2023/07/05 03:57:28;;;;;;;1.20;1.10;;;17.40;99.90;;;;;;5074130;28;20444;-79
2023/07/05 03:59:55;;;;;;;1.00;0.77;;;17.50;99.90;;;;;;5074338;28;20460;-79
2023/07/05 04:02:22;;;;;;;0.90;0.63;;;17.40;99.90;;;;;;5074359;28;20816;-79
2023/07/05 04:04:50;;;;;;;0.63;0.63;;;17.40;99.90;;;;;;5074305;28;20448;-79
2023/07/05 04:07:17;;;;;;;0.70;0.70;;;17.30;99.90;;;;;;5074460;28;20467;-79
2023/07/05 04:09:43;;;;;;;2.03;0.80;;;17.20;99.90;;;;;;5074145;28;20476;-79
2023/07/05 04:12:11;;;;;;;0.43;0.43;;;17.20;99.90;;;;;;5074174;28;20429;-79
2023/07/05 04:14:38;;;;;;;1.33;0.97;;;17.20;99.90;;;;;;5073730;28;20488;-79
2023/07/05 04:17:05;;;;;;;0.70;0.60;;;17.30;99.90;;;;;;5074108;28;20461;-79
2023/07/05 04:19:32;;;;;;;0.50;0.50;;;17.30;99.90;;;;;;5073670;28;20987;-79
2023/07/05 04:22:00;;;;;;;0.90;0.70;;;17.30;99.90;;;;;;5073994;28;20449;-79
2023/07/05 04:24:27;;;;;;;1.90;0.70;;;17.30;99.90;;;;;;5073962;28;20441;-79
2023/07/05 04:26:53;;;;;;;0.60;0.60;;;17.30;99.90;;;;;;5073913;28;20445;-79
2023/07/05 04:29:20;;;;;;;1.17;0.60;;;17.30;99.90;;;;;;5073321;28;20975;-79
2023/07/05 04:31:47;;;;;;;0.60;0.60;;;17.30;99.90;;;;;;5073818;28;20816;-79
2023/07/05 04:34:13;;;;;;;0.60;0.60;;;17.40;99.90;;;;;;5073699;28;20488;-79
2023/07/05 04:36:40;;;;;;;1.13;0.90;;;17.40;99.90;;;;;;5073239;28;20820;-79
2023/07/05 04:39:08;;;;;;;0.63;0.63;;;17.40;99.90;;;;;;5073633;28;20476;-78
2023/07/05 04:41:35;;;;;;;0.73;0.57;;;17.30;99.90;;;;;;5073687;28;20449;-79
2023/07/05 04:44:04;;;;;;;4.03;0.87;;;17.30;99.90;;;;;;5073634;28;20445;-79
2023/07/05 04:46:31;;;;;;;0.70;0.63;;;17.30;99.90;;;;;;5073792;28;20455;-79
2023/07/05 04:48:57;;;;;;;1.90;0.70;;;17.30;99.90;;;;;;5073727;28;20467;-79
2023/07/05 04:51:24;;;;;;;0.90;0.63;;;17.30;99.90;;;;;;5073537;28;20948;-79
2023/07/05 04:53:51;;;;;;;0.70;0.60;;;17.30;99.90;;;;;;5073425;28;20480;-79
2023/07/05 04:56:19;;;;;;;0.80;0.80;;;17.30;99.90;;;;;;5073505;28;20783;-79
2023/07/05 04:58:48;;;;;;;0.50;0.50;;;17.40;99.90;;;;;;5073144;28;20469;-79
2023/07/05 05:01:15;;;;;;;0.70;0.53;;;17.40;99.90;;;;;;5073123;28;20963;-79
2023/07/05 05:03:42;;;;;;;1.20;0.70;;;17.50;99.90;;;;;;5073424;28;20472;-79
2023/07/05 05:06:10;;;;;;;0.67;0.50;;;17.60;99.90;;;;;;5073417;28;20452;-79
2023/07/05 05:08:36;;;;;;;6.07;0.80;;;17.70;99.90;;;;;;5073335;28;20469;-79
2023/07/05 05:11:04;;;;;;;0.60;0.60;;;17.80;99.90;;;;;;5073343;28;20445;-79
2023/07/05 05:13:34;;;;;;;1.33;1.00;;;17.80;99.90;;;;;;5073542;28;20472;-79
2023/07/05 05:16:02;;;;;;;0.50;0.50;;;17.90;99.90;;;;;;5073274;28;20456;-79
2023/07/05 05:18:31;;;;;;;5.30;0.97;;;18.00;99.90;;;;;;5073304;28;20461;-79
2023/07/05 05:20:58;;;;;;;0.60;0.60;;;18.10;99.90;;;;;;5073286;28;20453;-79
2023/07/05 05:23:25;;;;;;;2.40;0.70;;;18.30;99.90;;;;;;5073376;28;20806;-79
2023/07/05 05:25:52;;;;;;;0.60;0.60;;;18.40;99.90;;;;;;5072942;28;20952;-79
2023/07/05 05:28:19;;;;;;;0.87;0.60;;;18.40;99.90;;;;;;5072766;28;20972;-79
2023/07/05 05:30:47;;;;;;;0.90;0.60;;;18.40;99.90;;;;;;5072938;28;20429;-79
2023/07/05 05:33:16;;;;;;;1.57;0.50;;;18.40;99.90;;;;;;5072740;28;20848;-79
2023/07/05 05:35:47;;;;;;;0.80;0.50;;;18.30;99.90;;;;;;5074204;28;20452;-79
2023/07/05 05:38:14;;;;;;;2.20;1.00;;;18.30;99.90;;;;;;5073073;28;20445;-79
2023/07/05 05:40:41;;;;;;;0.60;0.50;;;18.40;99.90;;;;;;5073066;28;20460;-79
2023/07/05 05:43:07;;;;;;;1.73;0.80;;;18.40;99.90;;;;;;5072669;28;20829;-79
2023/07/05 05:45:34;;;;;;;0.73;0.60;;;18.50;99.90;;;;;;5073027;28;20451;-79
2023/07/05 05:48:03;;;;;;;3.70;0.90;;;18.60;99.90;;;;;;5072900;28;20449;-79
2023/07/05 05:50:30;;;;;;;0.60;0.60;;;18.60;99.90;;;;;;5076886;28;20449;-79
2023/07/05 05:52:57;;;;;;;1.43;0.60;;;18.60;99.90;;;;;;5076820;28;20452;-79
2023/07/05 05:55:24;;;;;;;0.70;0.70;;;18.60;99.90;;;;;;5076749;28;20480;-79
2023/07/05 05:57:51;;;;;;;0.50;0.50;;;18.70;99.90;;;;;;5076774;28;20452;-79
2023/07/05 06:00:18;;;;;;;1.37;0.90;;;18.90;99.90;;;;;;5076305;28;20869;-79
2023/07/05 06:02:44;;;;;;;2.83;0.60;;;19.10;99.90;;;;;;5076630;28;20451;-79
2023/07/05 06:05:13;;;;;;;0.80;0.73;;;19.30;99.90;;;;;;5076633;28;20440;-79
2023/07/05 06:07:40;;;;;;;1.20;0.60;;;19.40;99.90;;;;;;5076630;28;20455;-79
2023/07/05 06:10:08;;;;;;;0.67;0.67;;;19.60;99.90;;;;;;5076534;28;20468;-79
2023/07/05 06:12:40;;;;;;;0.80;0.80;;;19.80;99.90;;;;;;5076508;28;20457;-79
2023/07/05 06:15:09;;;;;;;1.20;0.73;;;20.00;99.90;;;;;;5076430;28;20476;-79
2023/07/05 06:17:35;;;;;;;0.80;0.80;;;20.00;99.90;;;;;;5076370;28;20444;-79
2023/07/05 06:20:02;;;;;;;0.73;0.70;;;20.00;99.90;;;;;;5076297;28;20479;-78
2023/07/05 06:22:30;;;;;;;1.23;0.70;;;20.20;99.90;;;;;;5076339;28;20447;-79
2023/07/05 06:24:57;;;;;;;0.87;0.80;;;20.30;99.90;;;;;;5076037;28;20441;-79
2023/07/05 06:27:24;;;;;;;2.20;1.20;;;20.30;99.90;;;;;;5076207;28;20456;-79
2023/07/05 06:29:51;;;;;;;0.67;0.50;;;20.20;99.90;;;;;;5075682;28;20980;-79
2023/07/05 06:32:17;;;;;;;0.60;0.60;;;20.30;99.90;;;;;;5076122;28;20472;-79
2023/07/05 06:34:44;;;;;;;1.00;0.67;;;20.30;99.90;;;;;;5075905;28;21003;-79
2023/07/05 06:37:11;;;;;;;1.90;0.80;;;20.30;99.90;;;;;;5076031;28;20445;-79
2023/07/05 06:39:42;;;;;;;1.43;0.87;;;20.00;99.90;;;;;;5075939;28;20480;-78
2023/07/05 06:42:08;;;;;;;1.07;0.77;;;19.80;99.90;;;;;;5075706;28;20904;-77
2023/07/05 06:44:35;;;;;;;6.87;1.53;;;19.60;99.90;;;;;;5075723;28;20440;-78
2023/07/05 06:47:02;;;;;;;8.83;1.20;;;19.30;99.90;;;;;;5075841;28;20453;-78
2023/07/05 06:49:29;;;;;;;1.50;0.80;;;19.00;99.90;;;;;;5075808;28;20468;-79
2023/07/05 06:51:55;;;;;;;3.03;1.10;;;18.60;99.90;;;;;;5075811;28;20449;-80
2023/07/05 06:54:22;;;;;;;0.93;0.80;;;18.30;99.90;;;;;;5075643;28;20495;-80
2023/07/05 06:56:50;;;;;;;1.47;0.70;;;18.10;99.90;;;;;;5075593;28;20444;-80
2023/07/05 06:59:17;;;;;;;0.93;0.50;;;17.80;99.90;;;;;;5075663;28;20471;-80
2023/07/05 07:01:44;;;;;;;5.77;0.70;;;17.60;99.90;;;;;;5075765;28;20476;-80
2023/07/05 07:04:10;;;;;;;0.70;0.60;;;17.40;99.90;;;;;;5075613;28;20551;-80
2023/07/05 07:06:37;;;;;;;0.50;0.40;;;17.30;99.90;;;;;;5075485;28;20453;-80
2023/07/05 07:09:05;;;;;;;1.00;0.40;;;17.30;99.90;;;;;;5075685;28;20472;-80
2023/07/05 07:11:32;;;;;;;0.80;0.60;;;17.30;99.90;;;;;;5075105;28;20945;-79
2023/07/05 07:14:00;;;;;;;0.50;0.47;;;17.30;99.90;;;;;;5075280;28;20476;-79
2023/07/05 07:16:27;;;;;;;0.90;0.50;;;17.60;99.90;;;;;;5075114;28;20466;-79
2023/07/05 07:18:55;;;;;;;0.67;0.67;;;17.70;99.90;;;;;;5075187;28;20476;-79
2023/07/05 07:21:22;;;;;;;0.40;0.40;;;17.70;99.90;;;;;;5075188;28;20460;-79
2023/07/05 07:23:51;;;;;;;5.30;0.63;;;17.70;99.90;;;;;;5075127;28;20453;-80
2023/07/05 07:26:20;;;;;;;0.60;0.33;;;17.70;99.90;;;;;;5075089;28;20480;-79
2023/07/05 07:28:48;;;;;;;0.43;0.43;;;17.80;99.90;;;;;;5074669;28;20476;-79
2023/07/05 07:31:19;;;;;;;0.50;0.40;;;17.80;99.90;;;;;;5074689;28;20948;-79
2023/07/05 07:33:47;;;;;;;0.40;0.40;;;17.80;99.90;;;;;;5074930;28;20476;-79
2023/07/05 07:36:16;;;;;;;0.83;0.83;;;17.90;99.90;;;;;;5074555;28;20933;-79
2023/07/05 07:38:44;;;;;;;0.60;0.60;;;18.00;99.90;;;;;;5074789;28;20461;-79
2023/07/05 07:41:16;;;;;;;0.93;0.50;;;18.00;99.90;;;;;;5074817;28;20449;-80
2023/07/05 07:43:43;;;;;;;0.57;0.50;;;17.90;99.90;;;;;;5075254;28;20519;-80
2023/07/05 07:46:13;;;;;;;0.63;0.60;;;17.90;99.90;;;;;;5074383;28;20944;-79
2023/07/05 07:48:43;;;;;;;0.50;0.50;;;17.80;99.90;;;;;;5074777;28;20469;-79
2023/07/05 07:51:10;;;;;;;0.90;0.90;;;17.70;99.90;;;;;;5074968;28;20453;-79
2023/07/05 07:53:37;;;;;;;0.93;0.40;;;17.60;99.90;;;;;;5074474;28;20785;-79
2023/07/05 07:56:11;;;;;;;0.50;0.40;;;17.60;99.90;;;;;;5074395;28;20492;-79
2023/07/05 07:58:38;;;;;;;0.47;0.47;;;17.70;99.90;;;;;;5074432;28;20476;-79
2023/07/05 08:01:11;;;;;;;0.60;0.47;;;17.70;99.90;;;;;;5074455;28;20449;-79
2023/07/05 08:03:38;;;;;;;1.40;0.50;;;17.70;99.90;;;;;;5074420;28;20441;-79
2023/07/05 08:06:07;;;;;;;1.10;0.60;;;17.70;99.90;;;;;;5074335;28;20445;-79
2023/07/05 08:08:33;;;;;;;0.93;0.60;;;17.70;99.90;;;;;;5073866;28;20493;-79
2023/07/05 08:11:01;;;;;;;3.27;0.50;;;17.70;99.90;;;;;;5073447;28;20967;-79
2023/07/05 08:13:28;;;;;;;0.93;0.50;;;17.60;99.90;;;;;;5074138;28;20449;-79
2023/07/05 08:15:54;;;;;;;0.50;0.40;;;17.60;99.90;;;;;;5073857;28;20484;-78
2023/07/05 08:18:21;;;;;;;0.60;0.57;;;17.50;99.90;;;;;;5073735;28;20976;-78
2023/07/05 08:20:48;;;;;;;0.53;0.50;;;17.40;99.90;;;;;;5074046;28;20460;-78
2023/07/05 08:23:16;;;;;;;0.50;0.47;;;17.40;99.90;;;;;;5073958;28;20453;-78
2023/07/05 08:25:43;;;;;;;0.50;0.50;;;17.30;99.90;;;;;;5073990;28;20810;-79
2023/07/05 08:28:11;;;;;;;0.53;0.53;;;17.30;99.90;;;;;;5073624;28;20511;-79
2023/07/05 08:30:39;;;;;;;0.70;0.50;;;17.40;99.90;;;;;;5073559;28;20519;-79
2023/07/05 08:33:07;;;;;;;3.03;0.77;;;17.40;99.90;;;;;;5073509;28;20449;-78
2023/07/05 08:35:34;;;;;;;0.50;0.50;;;17.40;99.90;;;;;;5073697;28;20488;-79
2023/07/05 08:38:01;;;;;;;0.90;0.50;;;17.50;99.90;;;;;;5073339;28;20481;-78
2023/07/05 08:40:38;;;;;;;0.70;0.50;;;17.50;99.90;;;;;;5073662;28;20445;-79
2023/07/05 08:43:11;;;;;;;1.47;0.63;;;17.30;99.90;;;;;;5073724;28;20444;-79
2023/07/05 08:45:43;;;;;;;0.60;0.53;;;17.40;99.90;;;;;;5073371;28;20913;-79
2023/07/05 08:48:13;;;;;;;0.60;0.60;;;17.40;99.90;;;;;;5073606;28;20429;-79
2023/07/05 08:50:43;;;;;;;2.63;0.60;;;17.50;99.90;;;;;;5073412;28;20452;-79
2023/07/05 08:53:14;;;;;;;1.00;0.60;;;17.60;99.90;;;;;;5073302;28;20441;-78
2023/07/05 08:55:52;;;;;;;0.50;0.30;;;17.70;99.90;;;;;;5073220;28;20999;-78
2023/07/05 08:58:23;;;;;;;0.40;0.40;;;17.80;99.90;;;;;;5073491;28;20469;-79
2023/07/05 09:00:56;;;;;;;1.23;0.60;;;17.90;99.90;;;;;;5073336;28;20444;-79
2023/07/05 09:03:28;;;;;;;1.23;0.60;;;18.20;99.90;;;;;;5073537;28;20536;-80
2023/07/05 09:06:10;;;;;;;1.20;0.70;;;18.60;99.90;;;;;;5073441;28;20528;-79
2023/07/05 09:08:45;;;;;;;1.47;0.87;;;19.10;99.90;;;;;;5073387;28;20480;-79
2023/07/05 09:11:18;;;;;;;0.60;0.60;;;19.70;99.90;;;;;;5073446;28;20433;-79
2023/07/05 09:13:46;;;;;;;1.13;0.60;;;20.00;99.90;;;;;;5073463;28;20429;-78
2023/07/05 09:16:18;;;;;;;0.70;0.40;;;20.20;99.90;;;;;;5073535;28;20477;-79
2023/07/05 09:18:58;;;;;;;0.67;0.67;;;20.10;99.90;;;;;;5073428;28;20465;-79
2023/07/05 09:21:33;;;;;;;0.80;0.60;;;20.20;99.90;;;;;;5073005;28;20433;-79
2023/07/05 09:24:08;;;;;;;0.80;0.60;;;20.00;99.90;;;;;;5074794;28;20796;-79
2023/07/05 09:26:38;;;;;;;0.63;0.60;;;19.70;99.90;;;;;;5077504;28;20424;-79
2023/07/05 09:29:13;;;;;;;0.73;0.70;;;19.50;99.90;;;;;;5076978;28;21007;-79
2023/07/05 09:31:40;;;;;;;0.70;0.50;;;19.60;99.90;;;;;;5077045;28;20977;-79
2023/07/05 09:34:19;;;;;;;1.57;0.80;;;19.70;99.90;;;;;;5076975;28;20456;-79
2023/07/05 09:36:49;;;;;;;0.73;0.57;;;19.90;99.90;;;;;;5077203;28;20464;-78
2023/07/05 09:39:26;;;;;;;2.00;0.90;;;20.00;99.90;;;;;;5077158;28;20460;-79
2023/07/05 09:41:58;;;;;;;1.00;0.70;;;20.00;99.90;;;;;;5077181;28;20436;-79
2023/07/05 09:44:24;;;;;;;0.60;0.60;;;20.20;99.90;;;;;;5077087;28;20419;-78
2023/07/05 09:46:52;;;;;;;0.80;0.77;;;20.50;99.90;;;;;;5077016;28;20459;-79
2023/07/05 09:49:20;;;;;;;0.97;0.77;;;20.70;99.90;;;;;;5077039;28;20475;-79
2023/07/05 09:51:47;;;;;;;0.97;0.83;;;21.00;99.90;;;;;;5076803;28;20850;-78
2023/07/05 09:54:21;;;;;;;0.80;0.80;;;21.00;99.90;;;;;;5076834;28;20944;-79
2023/07/05 09:57:04;;;;;;;1.10;1.00;;;21.10;99.90;;;;;;5076858;28;20842;-79
2023/07/05 09:59:32;;;;;;;1.40;0.80;;;21.40;99.90;;;;;;5076787;28;20486;-79
2023/07/05 10:02:16;;;;;;;1.27;0.80;;;21.50;99.90;;;;;;5076904;28;20452;-79
2023/07/05 10:04:46;;;;;;;0.87;0.87;;;21.60;99.90;;;;;;5076633;28;20935;-79
2023/07/05 10:07:17;;;;;;;1.20;1.10;;;21.70;99.90;;;;;;5076665;28;20455;-79
2023/07/05 10:09:57;;;;;;;0.80;0.60;;;21.80;99.90;;;;;;5076522;28;20507;-79
2023/07/05 10:12:33;;;;;;;1.27;0.70;;;21.90;99.90;;;;;;5076833;28;20904;-79
2023/07/05 10:15:01;;;;;;;1.83;1.10;;;21.80;99.90;;;;;;5076442;28;20464;-79
2023/07/05 10:17:40;;;;;;;1.10;0.90;;;22.10;99.90;;;;;;5076425;28;20501;-79
2023/07/05 10:20:18;;;;;;;1.57;0.80;;;22.10;99.90;;;;;;5076043;28;20502;-79
2023/07/05 10:22:45;;;;;;;2.10;0.80;;;22.10;99.90;;;;;;5076253;28;20824;-79
2023/07/05 10:25:17;;;;;;;2.23;1.40;;;22.20;99.90;;;;;;5076383;28;20451;-79
2023/07/05 10:27:48;;;;;;;1.30;0.90;;;22.30;99.90;;;;;;5076093;28;20428;-81
2023/07/05 10:30:17;;;;;;;1.17;1.07;;;22.30;99.90;;;;;;5076198;28;20460;-79
2023/07/05 10:32:49;;;;;;;0.93;0.70;;;22.30;99.90;;;;;;5075814;28;20951;-79
2023/07/05 10:35:23;;;;;;;1.00;0.90;;;22.30;99.90;;;;;;5075649;28;20471;-79
2023/07/05 10:37:50;;;;;;;3.67;0.70;;;22.40;99.90;;;;;;5076132;28;20444;-79
2023/07/05 10:40:17;;;;;;;3.27;1.50;;;22.50;99.90;;;;;;5076125;28;20479;-79
2023/07/05 10:42:49;;;;;;;1.10;0.90;;;22.60;99.90;;;;;;5076013;28;20432;-79
2023/07/05 10:45:18;;;;;;;0.77;0.70;;;22.50;99.90;;;;;;5075680;28;20928;-79
2023/07/05 10:47:51;;;;;;;1.03;0.73;;;22.60;99.90;;;;;;5075829;28;20932;-79
2023/07/05 10:50:30;;;;;;;0.90;0.70;;;22.50;99.90;;;;;;5075539;28;20475;-79
2023/07/05 10:53:01;;;;;;;1.97;1.27;;;22.50;99.90;;;;;;5076162;28;20433;-79
2023/07/05 10:55:38;;;;;;;1.50;0.80;;;22.60;99.90;;;;;;5075765;28;20473;-79
2023/07/05 10:58:12;;;;;;;0.80;0.80;;;22.60;99.90;;;;;;5075670;28;20428;-81
2023/07/05 11:00:43;;;;;;;1.50;0.90;;;22.80;99.90;;;;;;5075714;28;20433;-80
2023/07/05 11:03:15;;;;;;;1.57;0.90;;;22.90;99.90;;;;;;5075618;28;20432;-79
2023/07/05 11:05:45;;;;;;;1.20;0.70;;;23.20;99.90;;;;;;5075273;28;20787;-79
2023/07/05 11:08:17;;;;;;;1.07;0.80;;;23.50;99.90;;;;;;5075709;28;20198;-79
2023/07/05 11:10:44;;;;;;;1.17;0.70;;;24.00;99.40;;;;;;5075468;28;20635;-79
2023/07/05 11:13:16;;;;;;;0.63;0.63;;;24.30;98.20;;;;;;5075474;28;20202;-79
2023/07/05 11:15:43;;;;;;;0.63;0.63;;;24.30;96.20;;;;;;5075396;28;20234;-81
2023/07/05 11:18:15;;;;;;;0.87;0.70;;;24.30;95.70;;;;;;5075132;28;20222;-79
2023/07/05 11:20:50;;;;;;;8.30;1.20;;;23.90;95.50;;;;;;5075344;28;20186;-80
2023/07/05 11:23:55;;;;;;;1.13;0.70;;;23.60;95.30;;;;;;5075533;28;20206;-79
2023/07/05 11:26:40;;;;;;;1.07;0.80;;;23.60;97.70;;;;;;5075266;28;20224;-80
2023/07/05 11:29:49;;;;;;;0.90;0.90;;;23.50;96.80;;;;;;5074727;28;20237;-79
2023/07/05 11:32:17;;;;;;;1.07;0.90;;;23.30;95.30;;;;;;5075135;28;20594;-81
2023/07/05 11:34:47;;;;;;;1.47;1.00;;;23.30;96.50;;;;;;5075028;28;20444;-80
2023/07/05 11:37:40;;;;;;;2.33;0.77;;;23.40;96.30;;;;;;5074607;28;20495;-79
2023/07/05 11:40:40;;;;;;;0.93;0.80;;;23.30;95.10;;;;;;5074876;28;20287;-79
2023/07/05 11:43:24;;;;;;;1.67;0.63;;;23.20;94.70;;;;;;5074694;28;20437;-80
2023/07/05 11:45:51;;;;;;;1.20;1.00;;;23.30;94.50;;;;;;5074237;28;20420;-80
2023/07/05 11:48:40;;;;;;;0.80;0.80;;;23.30;95.30;;;;;;5074495;28;20480;-79
2023/07/05 11:51:25;;;;;;;0.90;0.90;;;23.30;93.50;;;;;;5074311;28;20804;-79
2023/07/05 11:53:55;;;;;;;0.77;0.70;;;23.30;92.00;;;;;;5074633;28;20428;-79
2023/07/05 11:56:24;;;;;;;1.03;0.77;;;23.20;90.90;;;;;;5074489;28;20476;-79
2023/07/05 11:58:54;;;;;;;1.43;0.77;;;23.30;91.40;;;;;;5074158;28;20460;-79
2023/07/05 12:01:27;;;;;;;1.80;0.90;;;23.20;92.80;;;;;;5074223;28;20209;-79
2023/07/05 12:03:59;;;;;;;1.13;0.77;;;23.20;94.40;;;;;;5074402;28;20432;-79
2023/07/05 12:06:38;;;;;;;2.53;0.70;;;23.30;93.90;;;;;;5074485;28;20186;-79
2023/07/05 12:09:07;;;;;;;1.10;0.70;;;23.40;93.20;;;;;;5074159;28;20990;-79
2023/07/05 12:11:37;;;;;;;1.23;0.83;;;23.40;92.10;;;;;;5074508;28;20455;-79
2023/07/05 12:14:05;;;;;;;1.07;0.77;;;23.40;92.20;;;;;;5074962;28;20666;-80
2023/07/05 12:16:32;;;;;;;0.93;0.60;;;23.40;91.70;;;;;;5074265;28;20480;-79
2023/07/05 12:19:01;;;;;;;0.60;0.60;;;23.40;90.60;;;;;;5074005;28;20472;-79
2023/07/05 12:21:31;;;;;;;1.70;1.10;;;23.20;90.40;;;;;;5074148;28;20497;-79
2023/07/05 12:23:59;;;;;;;1.13;0.80;;;23.00;88.30;;;;;;5074354;28;20425;-79
2023/07/05 12:26:29;;;;;;;1.03;0.80;;;23.00;91.90;;;;;;5074295;28;20474;-79
2023/07/05 12:28:59;;;;;;;0.70;0.60;;;22.90;89.90;;;;;;5073650;28;20488;-79
2023/07/05 12:31:27;;;;;;;0.70;0.53;;;23.00;90.30;;;;;;5073934;28;20460;-79
2023/07/05 12:33:55;;;;;;;0.93;0.60;;;22.90;89.00;;;;;;5073617;28;20480;-79
2023/07/05 12:36:25;;;;;;;1.30;0.63;;;22.90;88.30;;;;;;5073749;28;20682;-79
2023/07/05 12:39:06;;;;;;;1.70;0.60;;;22.90;87.50;;;;;;5073431;28;20464;-79
2023/07/05 12:41:33;;;;;;;0.90;0.70;;;22.90;87.80;;;;;;5073787;28;20464;-79
2023/07/05 12:44:01;;;;;;;0.80;0.60;;;22.80;86.00;;;;;;5073698;28;20451;-79
2023/07/05 12:46:29;;;;;;;0.73;0.60;;;22.80;89.40;;;;;;5073701;28;20451;-79
2023/07/05 12:48:58;;;;;;;0.70;0.70;;;22.70;89.60;;;;;;5073328;28;20837;-79
2023/07/05 12:51:28;;;;;;;1.40;0.70;;;22.70;85.40;;;;;;5073645;28;20456;-78
2023/07/05 12:53:59;;;;;;;2.60;0.83;;;22.60;85.00;;;;;;5073808;28;20454;-79
2023/07/05 12:56:32;;;;;;;0.60;0.50;;;22.70;89.10;;;;;;5073585;28;20233;-79
2023/07/05 12:59:03;;;;;;;0.73;0.73;;;22.70;87.60;;;;;;5073306;28;21022;-79
2023/07/05 13:01:32;;;;;;;0.63;0.63;;;22.70;89.20;;;;;;5073491;28;20441;-79